Time;durP1;ratioP1;P1;durP2;ratioP2;P2;SDS_P1;SDS_P2;PMS_P1;PMS_P2;Temp;Humidity;BMP_temperature;BMP_pressure;BME280_temperature;BME280_humidity;BME280_pressure;Samples;Min_cycle;Max_cycle;Signal;HPM_P1;HPM_P2
2022/09/06 00:00:06;;;;;;;2.58;1.17;;;18.20;82.10;;;;;;5032485;28;20041;-77
2022/09/06 00:02:33;;;;;;;6.07;1.60;;;18.20;82.30;;;;;;5050676;28;20028;-76
2022/09/06 00:04:59;;;;;;;5.00;1.90;;;18.20;82.20;;;;;;5033906;28;20033;-76
2022/09/06 00:07:27;;;;;;;1.92;1.35;;;18.10;82.30;;;;;;5053733;28;20047;-77
2022/09/06 00:09:53;;;;;;;2.20;1.10;;;18.10;82.40;;;;;;5034161;28;20025;-77
2022/09/06 00:12:19;;;;;;;3.05;1.30;;;18.10;82.40;;;;;;5036207;28;20024;-77
2022/09/06 00:14:44;;;;;;;5.68;1.65;;;18.10;82.50;;;;;;5040446;28;20089;-77
2022/09/06 00:17:10;;;;;;;4.70;1.70;;;18.10;82.60;;;;;;5051456;28;20484;-76
2022/09/06 00:19:35;;;;;;;3.78;1.52;;;18.10;82.60;;;;;;5040534;28;20419;-77
2022/09/06 00:22:01;;;;;;;3.60;1.83;;;18.00;82.80;;;;;;5018783;28;20049;-77
2022/09/06 00:24:27;;;;;;;3.35;1.48;;;18.00;83.20;;;;;;5051276;28;20080;-77
2022/09/06 00:26:52;;;;;;;3.30;1.25;;;18.00;82.90;;;;;;5036150;28;20028;-77
2022/09/06 00:29:18;;;;;;;3.72;1.70;;;18.10;82.80;;;;;;5051781;28;20052;-76
2022/09/06 00:31:44;;;;;;;2.10;1.30;;;18.10;82.70;;;;;;5052109;28;20041;-77
2022/09/06 00:34:09;;;;;;;3.40;1.38;;;18.00;82.70;;;;;;5032484;28;20040;-77
2022/09/06 00:36:35;;;;;;;3.13;1.60;;;18.10;82.70;;;;;;5035951;28;20108;-77
2022/09/06 00:39:00;;;;;;;5.35;1.60;;;18.00;82.60;;;;;;5026390;28;20107;-77
2022/09/06 00:41:26;;;;;;;1.83;1.33;;;18.00;82.80;;;;;;5009391;28;20055;-77
2022/09/06 00:43:53;;;;;;;6.40;1.73;;;18.00;82.60;;;;;;5048135;28;20098;-77
2022/09/06 00:46:24;;;;;;;2.95;1.83;;;18.00;82.80;;;;;;5046291;28;20099;-76
2022/09/06 00:48:55;;;;;;;3.88;1.67;;;18.00;82.70;;;;;;5025315;28;20035;-77
2022/09/06 00:51:24;;;;;;;1.88;1.20;;;17.90;82.80;;;;;;5047916;28;20505;-77
2022/09/06 00:53:50;;;;;;;2.58;1.50;;;17.90;82.70;;;;;;5027015;28;20075;-77
2022/09/06 00:56:16;;;;;;;2.38;1.55;;;17.90;82.60;;;;;;5035672;28;20018;-77
2022/09/06 00:58:42;;;;;;;3.10;1.40;;;17.90;82.60;;;;;;5046660;28;20035;-76
2022/09/06 01:01:08;;;;;;;7.05;1.70;;;17.90;82.80;;;;;;5050542;28;20033;-76
2022/09/06 01:03:35;;;;;;;3.25;1.50;;;17.80;82.90;;;;;;5025546;28;20017;-76
2022/09/06 01:06:19;;;;;;;3.42;1.38;;;17.80;82.60;;;;;;5064408;28;20031;-76
2022/09/06 01:09:02;;;;;;;3.22;1.55;;;17.80;83.10;;;;;;5042960;28;20029;-77
2022/09/06 01:12:00;;;;;;;2.55;1.27;;;17.80;83.10;;;;;;5030279;28;20025;-77
2022/09/06 01:14:53;;;;;;;4.10;1.67;;;17.80;82.70;;;;;;5028226;28;21052;-76
2022/09/06 01:17:57;;;;;;;3.10;1.70;;;17.80;83.00;;;;;;5020490;28;20032;-76
2022/09/06 01:20:45;;;;;;;2.70;1.70;;;17.80;82.50;;;;;;5030720;28;20033;-77
2022/09/06 01:23:13;;;;;;;3.17;1.52;;;17.80;82.70;;;;;;5048099;28;20025;-77
2022/09/06 01:26:02;;;;;;;3.42;1.88;;;17.80;82.70;;;;;;5026632;28;20393;-76
2022/09/06 01:28:46;;;;;;;6.07;1.60;;;17.70;82.40;;;;;;5028565;28;20043;-75
2022/09/06 01:31:21;;;;;;;4.05;1.50;;;17.80;82.40;;;;;;5029429;28;20033;-76
2022/09/06 01:34:02;;;;;;;2.97;1.50;;;17.80;82.70;;;;;;5048011;28;20037;-76
2022/09/06 01:36:48;;;;;;;4.25;1.55;;;17.80;82.10;;;;;;5028697;28;20054;-75
2022/09/06 01:39:32;;;;;;;4.63;1.88;;;17.70;82.10;;;;;;5010922;28;20039;-75
2022/09/06 01:42:04;;;;;;;5.85;1.60;;;17.70;82.20;;;;;;5051901;28;20033;-76
2022/09/06 01:44:30;;;;;;;2.55;1.52;;;17.70;83.10;;;;;;5030557;28;20525;-76
2022/09/06 01:47:24;;;;;;;2.70;1.63;;;17.70;82.30;;;;;;5038894;28;20033;-75
2022/09/06 01:50:08;;;;;;;5.18;2.00;;;17.70;82.10;;;;;;5049970;28;20029;-76
2022/09/06 01:52:48;;;;;;;2.25;1.40;;;17.70;82.10;;;;;;5050450;28;20024;-77
2022/09/06 01:55:42;;;;;;;8.55;1.65;;;17.70;82.00;;;;;;5028135;28;20033;-77
2022/09/06 01:58:29;;;;;;;3.42;1.67;;;17.70;81.80;;;;;;5031102;28;20041;-75
2022/09/06 02:01:12;;;;;;;3.53;1.60;;;17.60;81.80;;;;;;5012817;28;20573;-77
2022/09/06 02:03:57;;;;;;;4.05;1.98;;;17.60;81.90;;;;;;5028169;28;20460;-76
2022/09/06 02:06:36;;;;;;;3.38;1.40;;;17.60;81.90;;;;;;5031390;28;20111;-76
2022/09/06 02:09:16;;;;;;;3.05;1.58;;;17.60;81.80;;;;;;5027113;28;20043;-75
2022/09/06 02:11:49;;;;;;;5.13;1.77;;;17.50;81.70;;;;;;5026758;28;20107;-76
2022/09/06 02:14:21;;;;;;;6.72;1.58;;;17.50;81.90;;;;;;5046212;28;20053;-76
2022/09/06 02:16:49;;;;;;;2.75;1.70;;;17.50;81.40;;;;;;5043448;28;20025;-76
2022/09/06 02:19:23;;;;;;;4.18;1.80;;;17.50;81.60;;;;;;5037988;28;20041;-75
2022/09/06 02:21:51;;;;;;;3.78;1.70;;;17.50;81.40;;;;;;5029507;28;20104;-75
2022/09/06 02:24:22;;;;;;;4.03;1.63;;;17.60;81.50;;;;;;5048137;28;20108;-76
2022/09/06 02:26:49;;;;;;;3.20;1.50;;;17.60;81.40;;;;;;5030912;28;20112;-76
2022/09/06 02:29:16;;;;;;;4.18;1.40;;;17.50;81.10;;;;;;5045250;28;20090;-76
2022/09/06 02:31:51;;;;;;;4.45;1.95;;;17.50;81.30;;;;;;5045168;28;20045;-76
2022/09/06 02:34:18;;;;;;;3.33;1.70;;;17.50;80.70;;;;;;5045920;28;20372;-75
2022/09/06 02:36:45;;;;;;;3.92;1.60;;;17.50;80.70;;;;;;5014363;28;20112;-75
2022/09/06 02:39:11;;;;;;;5.30;1.50;;;17.50;80.70;;;;;;5032097;28;20358;-75
2022/09/06 02:41:40;;;;;;;5.60;1.40;;;17.50;80.50;;;;;;5033491;28;20433;-76
2022/09/06 02:44:05;;;;;;;2.63;1.50;;;17.50;80.90;;;;;;5050507;28;20047;-75
2022/09/06 02:46:31;;;;;;;4.55;1.60;;;17.50;80.50;;;;;;5032024;28;20111;-76
2022/09/06 02:48:57;;;;;;;3.83;1.50;;;17.40;80.40;;;;;;5031319;28;20023;-75
2022/09/06 02:51:22;;;;;;;2.38;1.30;;;17.40;80.40;;;;;;5032559;28;20033;-76
2022/09/06 02:53:48;;;;;;;2.70;1.50;;;17.40;80.30;;;;;;5015614;28;20493;-76
2022/09/06 02:56:14;;;;;;;3.25;1.58;;;17.40;80.10;;;;;;5053295;28;20033;-75
2022/09/06 02:58:40;;;;;;;3.47;1.77;;;17.40;79.90;;;;;;5015769;28;20047;-75
2022/09/06 03:01:06;;;;;;;2.58;1.42;;;17.40;79.90;;;;;;5037262;28;20025;-74
2022/09/06 03:03:31;;;;;;;6.10;1.95;;;17.40;79.60;;;;;;5034056;28;20513;-76
2022/09/06 03:05:57;;;;;;;3.80;1.40;;;17.30;79.50;;;;;;5031999;28;20091;-77
2022/09/06 03:08:32;;;;;;;3.58;1.42;;;17.30;79.50;;;;;;5030848;28;20036;-76
2022/09/06 03:10:58;;;;;;;4.40;1.27;;;17.30;79.50;;;;;;5034293;28;20504;-75
2022/09/06 03:13:25;;;;;;;3.78;1.38;;;17.30;79.30;;;;;;5029707;28;20059;-75
2022/09/06 03:15:52;;;;;;;4.32;1.63;;;17.30;79.40;;;;;;5033341;28;20048;-77
2022/09/06 03:18:18;;;;;;;4.05;1.85;;;17.40;79.20;;;;;;5048611;28;20032;-76
2022/09/06 03:20:44;;;;;;;3.60;2.00;;;17.30;78.60;;;;;;5049707;28;20033;-76
2022/09/06 03:23:10;;;;;;;4.22;1.67;;;17.30;78.50;;;;;;5031278;28;20028;-76
2022/09/06 03:25:36;;;;;;;4.65;1.70;;;17.30;78.40;;;;;;5029296;28;20033;-75
2022/09/06 03:28:02;;;;;;;2.22;1.40;;;17.30;78.30;;;;;;5032336;28;20025;-75
2022/09/06 03:30:28;;;;;;;6.22;2.03;;;17.30;78.40;;;;;;5032095;28;20040;-76
2022/09/06 03:32:54;;;;;;;2.85;1.38;;;17.20;78.10;;;;;;5049689;28;20033;-77
2022/09/06 03:35:19;;;;;;;2.92;1.48;;;17.20;78.30;;;;;;5033658;28;20033;-75
2022/09/06 03:37:45;;;;;;;3.65;1.88;;;17.20;78.20;;;;;;5035465;28;20029;-75
2022/09/06 03:40:11;;;;;;;4.57;2.00;;;17.20;77.90;;;;;;5019366;28;20037;-76
2022/09/06 03:42:36;;;;;;;4.45;1.67;;;17.20;77.90;;;;;;5031745;28;20021;-75
2022/09/06 03:45:02;;;;;;;3.28;1.50;;;17.20;78.10;;;;;;5034074;28;20053;-75
2022/09/06 03:47:28;;;;;;;5.30;2.10;;;17.20;77.70;;;;;;5030831;28;20039;-76
2022/09/06 03:49:54;;;;;;;8.02;1.67;;;17.20;77.30;;;;;;5016716;28;20032;-76
2022/09/06 03:52:19;;;;;;;3.20;1.80;;;17.20;77.10;;;;;;5050123;28;20408;-76
2022/09/06 03:54:45;;;;;;;4.10;1.80;;;17.10;76.70;;;;;;5050093;28;20029;-76
2022/09/06 03:57:10;;;;;;;4.10;1.70;;;17.10;76.70;;;;;;5016890;28;20047;-76
2022/09/06 03:59:36;;;;;;;3.40;1.40;;;17.10;76.80;;;;;;5014762;28;20032;-77
2022/09/06 04:02:02;;;;;;;3.70;1.60;;;17.10;76.60;;;;;;5049134;28;20112;-77
2022/09/06 04:04:28;;;;;;;4.03;2.00;;;17.10;76.80;;;;;;5033371;28;20047;-77
2022/09/06 04:06:53;;;;;;;3.03;1.92;;;17.10;76.40;;;;;;5053515;28;20025;-77
2022/09/06 04:09:19;;;;;;;3.95;1.75;;;17.10;76.40;;;;;;5032849;28;20397;-77
2022/09/06 04:11:45;;;;;;;4.60;1.75;;;17.10;76.50;;;;;;5051347;28;20477;-75
2022/09/06 04:14:10;;;;;;;4.18;1.95;;;17.10;75.60;;;;;;5016330;28;20024;-76
2022/09/06 04:16:36;;;;;;;2.92;1.88;;;17.10;75.60;;;;;;5050165;28;20123;-76
2022/09/06 04:19:03;;;;;;;2.85;1.67;;;17.10;75.50;;;;;;5049302;28;20520;-76
2022/09/06 04:21:29;;;;;;;4.32;1.73;;;17.10;75.20;;;;;;5036224;28;20036;-76
2022/09/06 04:23:55;;;;;;;4.60;1.85;;;17.10;74.80;;;;;;5054493;28;20037;-75
2022/09/06 04:26:21;;;;;;;5.13;1.50;;;17.00;75.00;;;;;;5033170;28;20119;-75
2022/09/06 04:28:46;;;;;;;5.65;1.70;;;17.00;74.30;;;;;;5059498;28;20027;-76
2022/09/06 04:31:12;;;;;;;5.38;1.75;;;17.10;74.20;;;;;;5059144;28;20041;-76
2022/09/06 04:33:38;;;;;;;5.60;1.80;;;17.10;73.90;;;;;;5029172;28;20029;-76
2022/09/06 04:36:07;;;;;;;4.38;1.65;;;17.10;74.00;;;;;;5024277;28;20029;-77
2022/09/06 04:38:35;;;;;;;3.30;1.40;;;17.00;73.60;;;;;;5015781;28;20024;-77
2022/09/06 04:41:01;;;;;;;4.72;1.63;;;17.00;73.50;;;;;;5025176;28;20122;-77
2022/09/06 04:43:27;;;;;;;2.85;1.65;;;17.00;73.40;;;;;;5026168;28;20651;-77
2022/09/06 04:45:53;;;;;;;5.78;1.63;;;17.00;73.40;;;;;;5044391;28;20029;-76
2022/09/06 04:48:18;;;;;;;3.22;1.23;;;17.00;73.60;;;;;;5028368;28;20033;-77
2022/09/06 04:50:44;;;;;;;4.97;1.33;;;16.90;73.20;;;;;;5031614;28;20038;-76
2022/09/06 04:53:10;;;;;;;3.85;1.33;;;16.90;72.80;;;;;;5024889;28;20033;-74
2022/09/06 04:55:36;;;;;;;3.10;1.40;;;16.90;72.60;;;;;;5022607;28;20754;-76
2022/09/06 04:58:02;;;;;;;4.57;1.10;;;16.90;73.00;;;;;;5046607;28;20563;-76
2022/09/06 05:00:30;;;;;;;2.58;1.35;;;16.90;73.00;;;;;;5008744;28;20040;-77
2022/09/06 05:02:56;;;;;;;5.13;1.45;;;16.90;72.80;;;;;;5027984;28;20029;-75
2022/09/06 05:05:22;;;;;;;2.88;1.10;;;16.90;72.50;;;;;;5025288;28;20025;-77
2022/09/06 05:07:53;;;;;;;2.95;1.63;;;16.90;72.80;;;;;;5026113;28;20501;-77
2022/09/06 05:10:19;;;;;;;3.22;1.63;;;16.90;72.40;;;;;;5043226;28;20029;-76
2022/09/06 05:12:48;;;;;;;3.88;1.45;;;16.90;72.80;;;;;;5012528;28;20037;-77
2022/09/06 05:15:15;;;;;;;4.43;1.42;;;16.90;73.00;;;;;;5014981;28;20025;-77
2022/09/06 05:17:41;;;;;;;4.68;1.52;;;16.90;72.60;;;;;;5015846;28;20123;-77
2022/09/06 05:20:07;;;;;;;3.97;1.40;;;16.90;73.00;;;;;;5018303;28;20116;-77
2022/09/06 05:22:33;;;;;;;2.50;1.20;;;16.90;72.70;;;;;;5038580;28;20523;-77
2022/09/06 05:24:59;;;;;;;3.88;1.20;;;16.90;72.90;;;;;;5022459;28;20029;-77
2022/09/06 05:27:24;;;;;;;4.15;1.20;;;16.90;73.90;;;;;;5049924;28;20021;-77
2022/09/06 05:29:50;;;;;;;3.47;1.35;;;16.90;72.70;;;;;;5018502;28;20081;-77
2022/09/06 05:32:16;;;;;;;3.80;1.55;;;16.90;72.70;;;;;;5050384;28;20045;-77
2022/09/06 05:34:41;;;;;;;3.58;1.20;;;16.90;72.80;;;;;;5057144;28;20066;-77
2022/09/06 05:37:07;;;;;;;6.22;1.77;;;16.90;72.20;;;;;;5038715;28;20049;-77
2022/09/06 05:39:33;;;;;;;3.63;1.55;;;16.90;72.30;;;;;;5056117;28;20056;-77
2022/09/06 05:41:59;;;;;;;8.68;2.10;;;16.90;72.30;;;;;;5041869;28;20031;-78
2022/09/06 05:44:25;;;;;;;9.52;1.40;;;16.90;72.10;;;;;;5015827;28;20024;-76
2022/09/06 05:46:51;;;;;;;2.45;1.27;;;16.90;72.30;;;;;;5018963;28;20025;-77
2022/09/06 05:49:16;;;;;;;3.42;1.42;;;16.90;72.00;;;;;;5040320;28;20025;-77
2022/09/06 05:51:42;;;;;;;4.50;1.40;;;16.80;72.40;;;;;;5060788;28;20025;-78
2022/09/06 05:54:10;;;;;;;3.97;1.30;;;16.80;72.70;;;;;;5056615;28;20401;-77
2022/09/06 05:56:36;;;;;;;2.42;1.20;;;16.90;72.90;;;;;;5036249;28;20108;-78
2022/09/06 05:59:03;;;;;;;6.22;1.23;;;16.90;72.70;;;;;;5054491;28;20059;-77
2022/09/06 06:01:29;;;;;;;5.07;1.40;;;16.90;72.20;;;;;;5037533;28;20025;-79
2022/09/06 06:04:01;;;;;;;2.72;1.30;;;16.90;72.20;;;;;;5037501;28;20481;-77
2022/09/06 06:06:31;;;;;;;3.30;1.00;;;16.90;72.10;;;;;;5059816;28;20031;-78
2022/09/06 06:08:58;;;;;;;5.18;1.80;;;16.90;71.80;;;;;;5062149;28;20080;-79
2022/09/06 06:11:25;;;;;;;4.25;1.20;;;16.90;72.10;;;;;;5055987;28;20029;-79
2022/09/06 06:13:51;;;;;;;4.03;1.33;;;16.90;72.00;;;;;;5052467;28;20029;-78
2022/09/06 06:16:19;;;;;;;4.63;1.58;;;16.90;72.20;;;;;;5019493;28;20097;-78
2022/09/06 06:18:45;;;;;;;3.17;1.23;;;16.90;72.60;;;;;;5040528;28;20033;-79
2022/09/06 06:21:18;;;;;;;3.88;1.33;;;17.00;78.10;;;;;;5056426;28;20037;-79
2022/09/06 06:23:44;;;;;;;3.08;1.42;;;17.30;72.60;;;;;;5039718;28;20784;-78
2022/09/06 06:26:12;;;;;;;3.85;1.10;;;17.10;71.80;;;;;;5023292;28;20165;-79
2022/09/06 06:28:38;;;;;;;13.35;1.23;;;17.10;71.80;;;;;;5037439;28;20041;-79
2022/09/06 06:31:05;;;;;;;3.65;1.17;;;17.00;71.90;;;;;;5041450;28;20089;-77
2022/09/06 06:33:32;;;;;;;2.95;1.20;;;17.00;72.40;;;;;;5038393;28;20036;-78
2022/09/06 06:36:19;;;;;;;5.30;1.20;;;17.10;72.30;;;;;;5057290;28;20029;-78
2022/09/06 06:38:45;;;;;;;3.53;1.25;;;17.00;72.00;;;;;;5044090;28;20412;-78
2022/09/06 06:41:13;;;;;;;4.88;1.30;;;17.00;72.20;;;;;;5041605;28;20096;-78
2022/09/06 06:43:39;;;;;;;2.40;1.30;;;17.00;72.00;;;;;;5040911;28;20025;-76
2022/09/06 06:46:10;;;;;;;4.90;1.30;;;17.00;72.40;;;;;;5037852;28;20063;-78
2022/09/06 06:48:39;;;;;;;9.57;1.50;;;17.00;72.40;;;;;;5042746;28;20022;-77
2022/09/06 06:51:06;;;;;;;1.60;0.90;;;17.00;72.40;;;;;;5038773;28;20048;-78
2022/09/06 06:53:31;;;;;;;3.78;1.50;;;17.10;72.60;;;;;;5058294;28;20025;-77
2022/09/06 06:55:58;;;;;;;3.58;1.30;;;17.10;72.60;;;;;;5055149;28;20059;-79
2022/09/06 06:58:24;;;;;;;4.85;1.08;;;17.10;72.70;;;;;;5041846;28;20056;-79
2022/09/06 07:00:49;;;;;;;3.10;1.10;;;17.10;72.90;;;;;;5038500;28;20100;-78
2022/09/06 07:03:17;;;;;;;4.50;1.45;;;17.10;72.50;;;;;;5057664;28;20021;-78
2022/09/06 07:05:43;;;;;;;4.53;1.40;;;17.20;72.80;;;;;;5038466;28;20029;-78
2022/09/06 07:08:09;;;;;;;2.47;1.27;;;17.20;73.10;;;;;;5039779;28;20084;-78
2022/09/06 07:10:36;;;;;;;5.82;1.33;;;17.20;73.00;;;;;;5063201;28;20057;-78
2022/09/06 07:13:02;;;;;;;4.72;1.30;;;17.20;72.80;;;;;;5068108;28;20093;-75
2022/09/06 07:15:27;;;;;;;7.25;1.20;;;17.30;73.00;;;;;;5065303;28;20098;-75
2022/09/06 07:17:56;;;;;;;3.75;1.30;;;17.30;72.60;;;;;;5067176;28;20033;-78
2022/09/06 07:20:24;;;;;;;4.55;1.30;;;17.30;72.70;;;;;;5039241;28;20373;-75
2022/09/06 07:23:04;;;;;;;7.00;1.30;;;17.30;73.30;;;;;;5011733;28;20029;-75
2022/09/06 07:25:30;;;;;;;4.47;1.38;;;17.40;73.40;;;;;;5042630;28;20357;-75
2022/09/06 07:28:05;;;;;;;2.60;1.20;;;17.40;73.70;;;;;;5018733;28;20029;-78
2022/09/06 07:30:38;;;;;;;4.97;1.20;;;17.40;73.90;;;;;;5047304;28;20080;-77
2022/09/06 07:33:04;;;;;;;3.42;1.33;;;17.50;73.30;;;;;;5040941;28;20057;-78
2022/09/06 07:35:31;;;;;;;2.03;1.20;;;17.50;73.80;;;;;;5042089;28;20117;-78
2022/09/06 07:37:59;;;;;;;4.28;1.30;;;17.50;74.00;;;;;;5022667;28;20523;-78
2022/09/06 07:40:27;;;;;;;4.40;1.23;;;17.50;73.40;;;;;;5057513;28;20260;-78
2022/09/06 07:42:58;;;;;;;9.00;1.27;;;17.50;73.40;;;;;;5040523;28;20052;-77
2022/09/06 07:45:24;;;;;;;2.20;1.20;;;17.40;73.40;;;;;;5057393;28;20020;-79
2022/09/06 07:47:54;;;;;;;3.22;1.30;;;17.50;73.90;;;;;;5044359;28;20187;-77
2022/09/06 07:50:20;;;;;;;3.38;1.50;;;17.60;73.90;;;;;;5061646;28;20036;-76
2022/09/06 07:52:46;;;;;;;5.13;1.75;;;17.60;73.80;;;;;;5048035;28;20159;-77
2022/09/06 07:55:12;;;;;;;5.22;1.77;;;17.60;74.10;;;;;;5044659;28;20057;-77
2022/09/06 07:57:37;;;;;;;3.00;1.27;;;17.60;73.70;;;;;;5041749;28;20045;-77
2022/09/06 08:00:03;;;;;;;4.45;1.63;;;17.60;74.00;;;;;;5040816;28;20083;-77
2022/09/06 08:02:30;;;;;;;4.07;1.40;;;17.60;73.70;;;;;;5025350;28;20413;-77
2022/09/06 08:04:56;;;;;;;2.60;1.38;;;17.60;74.30;;;;;;5061417;28;20081;-74
2022/09/06 08:07:23;;;;;;;5.57;1.85;;;17.60;74.10;;;;;;5027418;28;20427;-79
2022/09/06 08:09:50;;;;;;;3.40;1.50;;;17.60;73.90;;;;;;5045615;28;20096;-77
2022/09/06 08:12:16;;;;;;;5.22;1.52;;;17.70;74.40;;;;;;5063425;28;20036;-79
2022/09/06 08:14:42;;;;;;;7.32;1.52;;;17.60;74.40;;;;;;5048030;28;20033;-78
2022/09/06 08:17:07;;;;;;;2.47;1.52;;;17.60;74.50;;;;;;5044190;28;20091;-78
2022/09/06 08:19:36;;;;;;;4.80;1.25;;;17.60;74.40;;;;;;5061758;28;20033;-77
2022/09/06 08:22:02;;;;;;;3.22;1.40;;;17.70;74.70;;;;;;5044014;28;20112;-77
2022/09/06 08:24:27;;;;;;;5.05;1.23;;;17.70;74.90;;;;;;5044903;28;20130;-79
2022/09/06 08:26:53;;;;;;;4.70;1.60;;;17.80;75.00;;;;;;5036669;28;20088;-79
2022/09/06 08:29:19;;;;;;;4.38;1.67;;;17.80;74.70;;;;;;5042742;28;20031;-78
2022/09/06 08:31:46;;;;;;;4.85;1.50;;;17.80;74.90;;;;;;5041897;28;20090;-79
2022/09/06 08:34:13;;;;;;;5.88;1.52;;;17.80;75.30;;;;;;5058237;28;20047;-77
2022/09/06 08:36:39;;;;;;;3.95;1.65;;;18.00;74.80;;;;;;5033609;28;20024;-79
2022/09/06 08:39:07;;;;;;;5.18;1.50;;;18.00;74.50;;;;;;5046079;28;20025;-77
2022/09/06 08:42:00;;;;;;;4.97;1.40;;;18.00;75.30;;;;;;5052121;28;20029;-78
2022/09/06 08:44:33;;;;;;;2.85;1.55;;;18.10;75.30;;;;;;5059394;28;20025;-77
2022/09/06 08:47:05;;;;;;;5.78;1.60;;;18.00;75.00;;;;;;5015494;28;20036;-78
2022/09/06 08:49:35;;;;;;;5.65;1.60;;;18.00;75.20;;;;;;5036825;28;20021;-78
2022/09/06 08:52:30;;;;;;;4.43;1.50;;;18.00;75.40;;;;;;5040785;28;20036;-77
2022/09/06 08:55:20;;;;;;;4.80;1.67;;;18.00;75.50;;;;;;5040640;28;20041;-78
2022/09/06 08:58:23;;;;;;;3.70;1.50;;;18.00;75.60;;;;;;5031230;28;20028;-78
2022/09/06 09:01:02;;;;;;;2.75;1.45;;;18.00;76.30;;;;;;5050885;28;20029;-78
2022/09/06 09:03:35;;;;;;;4.68;1.70;;;18.00;76.00;;;;;;5066106;28;20132;-76
2022/09/06 09:06:04;;;;;;;4.35;1.60;;;18.00;76.30;;;;;;5023274;28;20466;-79
2022/09/06 09:08:51;;;;;;;4.30;1.50;;;18.00;76.90;;;;;;5022455;28;20021;-77
2022/09/06 09:11:20;;;;;;;6.00;1.80;;;18.10;76.10;;;;;;5035983;28;20040;-77
2022/09/06 09:13:46;;;;;;;5.53;1.67;;;18.20;76.90;;;;;;5021503;28;20411;-78
2022/09/06 09:16:13;;;;;;;10.77;2.00;;;18.20;76.70;;;;;;5037995;28;20108;-77
2022/09/06 09:19:01;;;;;;;6.00;1.83;;;18.20;76.40;;;;;;5036257;28;20036;-78
2022/09/06 09:21:29;;;;;;;5.13;1.83;;;18.20;77.00;;;;;;5059671;28;20037;-79
2022/09/06 09:24:00;;;;;;;5.43;1.98;;;18.30;76.40;;;;;;5025761;28;20120;-79
2022/09/06 09:26:31;;;;;;;7.22;2.10;;;18.20;76.70;;;;;;5030059;28;20057;-77
2022/09/06 09:29:04;;;;;;;3.95;1.48;;;18.20;76.70;;;;;;5058122;28;20071;-78
2022/09/06 09:31:36;;;;;;;5.32;2.00;;;18.20;77.10;;;;;;5061089;28;20036;-80
2022/09/06 09:34:03;;;;;;;;;;;18.10;77.40;;;;;;5042445;28;20056;-78
2022/09/06 09:36:30;;;;;;;3.25;1.63;;;18.20;77.60;;;;;;5043232;28;19908;-77
2022/09/06 09:38:57;;;;;;;6.07;1.63;;;18.30;77.60;;;;;;5057293;28;20086;-79
2022/09/06 09:41:35;;;;;;;7.65;2.00;;;18.30;77.90;;;;;;5044240;28;20044;-78
2022/09/06 09:44:08;;;;;;;5.20;1.70;;;18.30;77.50;;;;;;5062045;28;20021;-78
2022/09/06 09:46:36;;;;;;;5.90;1.98;;;18.30;77.40;;;;;;5031331;28;20025;-78
2022/09/06 09:49:08;;;;;;;5.07;1.92;;;18.20;78.20;;;;;;5036681;28;20180;-76
2022/09/06 09:52:10;;;;;;;4.35;1.88;;;18.20;78.40;;;;;;5043441;28;20024;-79
2022/09/06 09:54:39;;;;;;;2.97;1.50;;;18.20;78.00;;;;;;5039759;28;20033;-80
2022/09/06 09:57:17;;;;;;;4.93;1.83;;;18.30;78.20;;;;;;5043034;28;20143;-79
2022/09/06 09:59:51;;;;;;;3.47;1.95;;;18.20;77.50;;;;;;5042246;28;20058;-77
2022/09/06 10:02:34;;;;;;;5.05;2.28;;;18.20;78.30;;;;;;5041354;28;20017;-78
2022/09/06 10:05:05;;;;;;;3.88;1.90;;;18.20;77.80;;;;;;5058354;28;20384;-78
2022/09/06 10:07:32;;;;;;;5.65;2.13;;;18.10;77.70;;;;;;5043567;28;20517;-78
2022/09/06 10:10:11;;;;;;;5.90;1.73;;;18.10;77.80;;;;;;5042860;28;20624;-77
2022/09/06 10:12:39;;;;;;;5.28;1.67;;;18.10;78.00;;;;;;5042436;28;20386;-78
2022/09/06 10:15:33;;;;;;;5.18;1.70;;;18.10;78.00;;;;;;5044471;28;20527;-77
2022/09/06 10:17:59;;;;;;;4.90;2.22;;;18.20;78.50;;;;;;5036667;28;20048;-78
2022/09/06 10:20:44;;;;;;;5.00;2.03;;;18.20;78.70;;;;;;5061412;28;20033;-78
2022/09/06 10:24:01;;;;;;;2.92;1.88;;;18.30;78.20;;;;;;5026451;28;20127;-78
2022/09/06 10:26:50;;;;;;;2.72;1.73;;;18.20;78.00;;;;;;5014363;28;20048;-76
2022/09/06 10:29:26;;;;;;;6.45;2.13;;;18.30;78.20;;;;;;5014147;28;20070;-78
2022/09/06 10:32:16;;;;;;;7.65;2.20;;;18.30;78.10;;;;;;5030127;28;20611;-76
2022/09/06 10:35:04;;;;;;;8.60;2.15;;;18.30;78.20;;;;;;5045529;28;20535;-77
2022/09/06 10:37:39;;;;;;;7.60;2.13;;;18.30;78.40;;;;;;5047059;28;20119;-71
2022/09/06 10:40:08;;;;;;;7.18;2.00;;;18.30;78.60;;;;;;5045192;28;20040;-69
2022/09/06 10:42:52;;;;;;;6.45;2.25;;;18.30;78.80;;;;;;5045536;28;20089;-71
2022/09/06 10:45:43;;;;;;;4.35;2.00;;;18.30;79.30;;;;;;5030536;28;20033;-71
2022/09/06 10:48:18;;;;;;;4.75;1.92;;;18.40;79.80;;;;;;5029014;28;20079;-70
2022/09/06 10:50:49;;;;;;;7.28;1.95;;;18.50;79.20;;;;;;5046954;28;20033;-70
2022/09/06 10:53:20;;;;;;;4.07;1.60;;;18.50;78.90;;;;;;5049722;28;20148;-71
2022/09/06 10:55:55;;;;;;;5.72;1.90;;;18.50;78.30;;;;;;5048547;28;20079;-72
2022/09/06 10:58:27;;;;;;;4.30;2.13;;;18.40;78.20;;;;;;5022797;28;20126;-71
2022/09/06 11:00:54;;;;;;;4.03;2.00;;;18.50;78.90;;;;;;5045810;28;20045;-70
2022/09/06 11:03:41;;;;;;;4.72;1.95;;;18.50;78.60;;;;;;5034778;28;20025;-71
2022/09/06 11:06:08;;;;;;;9.13;1.90;;;18.50;78.30;;;;;;5030831;28;20088;-72
2022/09/06 11:08:35;;;;;;;5.38;1.83;;;18.50;78.70;;;;;;5048351;28;20090;-71
2022/09/06 11:11:07;;;;;;;4.85;1.88;;;18.60;78.90;;;;;;5016533;28;20201;-72
2022/09/06 11:13:32;;;;;;;4.85;1.80;;;18.60;78.90;;;;;;5057850;28;20032;-71
2022/09/06 11:16:14;;;;;;;5.60;2.17;;;18.70;78.70;;;;;;5053243;28;20384;-72
2022/09/06 11:18:52;;;;;;;11.13;2.40;;;18.70;78.60;;;;;;5045988;28;20109;-72
2022/09/06 11:21:30;;;;;;;7.07;2.63;;;18.60;78.10;;;;;;5032898;28;20033;-76
2022/09/06 11:24:13;;;;;;;6.55;2.10;;;18.70;78.30;;;;;;5045872;28;20047;-76
2022/09/06 11:27:03;;;;;;;3.63;2.08;;;18.70;78.00;;;;;;5045899;28;20208;-80
2022/09/06 11:29:30;;;;;;;9.32;2.20;;;18.80;77.80;;;;;;5045647;28;20036;-75
2022/09/06 11:32:00;;;;;;;6.65;2.38;;;18.80;78.00;;;;;;5030228;28;20033;-78
2022/09/06 11:34:29;;;;;;;3.38;2.17;;;18.90;78.50;;;;;;5018081;28;20056;-76
2022/09/06 11:36:59;;;;;;;5.65;1.90;;;19.00;81.60;;;;;;5017293;28;20029;-77
2022/09/06 11:39:35;;;;;;;3.95;1.73;;;19.00;77.10;;;;;;5032547;28;20025;-76
2022/09/06 11:42:02;;;;;;;5.50;1.63;;;19.00;77.50;;;;;;5050234;28;20035;-87
2022/09/06 11:44:53;;;;;;;6.05;2.00;;;18.90;77.70;;;;;;5056753;28;20029;-81
2022/09/06 11:47:42;;;;;;;8.50;2.97;;;19.00;78.20;;;;;;5068582;28;20083;-82
2022/09/06 11:50:52;;;;;;;8.70;2.28;;;19.00;77.70;;;;;;5052871;28;20082;-84
2022/09/06 11:53:18;;;;;;;6.05;1.90;;;18.90;77.30;;;;;;5044636;28;20113;-83
2022/09/06 11:55:55;;;;;;;7.38;1.80;;;19.00;77.60;;;;;;5034940;28;20036;-83
2022/09/06 11:58:30;;;;;;;4.15;2.05;;;19.00;77.20;;;;;;5051102;28;20120;-82
2022/09/06 12:01:12;;;;;;;4.88;1.52;;;19.00;77.00;;;;;;5033374;28;20025;-82
2022/09/06 12:03:47;;;;;;;3.33;1.67;;;19.00;76.80;;;;;;5063365;28;20207;-83
2022/09/06 12:06:21;;;;;;;4.47;2.00;;;19.00;77.10;;;;;;5050539;28;20017;-80
2022/09/06 12:08:51;;;;;;;5.35;2.00;;;19.00;77.40;;;;;;5048727;28;20074;-80
2022/09/06 12:11:36;;;;;;;5.43;1.70;;;19.00;78.90;;;;;;5034308;28;20040;-80
2022/09/06 12:14:18;;;;;;;4.78;1.70;;;19.00;78.60;;;;;;5067491;28;20075;-81
2022/09/06 12:16:57;;;;;;;6.22;1.63;;;19.10;79.30;;;;;;5039856;28;20028;-79
2022/09/06 12:19:42;;;;;;;6.80;2.00;;;19.10;79.90;;;;;;5023172;28;20124;-79
2022/09/06 12:22:26;;;;;;;4.70;1.60;;;19.10;80.30;;;;;;5049557;28;20032;-81
2022/09/06 12:24:55;;;;;;;3.25;1.77;;;19.10;81.00;;;;;;5050449;28;20029;-81
2022/09/06 12:27:23;;;;;;;5.90;1.77;;;19.00;80.60;;;;;;5035824;28;20481;-78
2022/09/06 12:30:00;;;;;;;8.18;1.90;;;19.10;81.20;;;;;;5030893;28;20033;-78
2022/09/06 12:32:48;;;;;;;3.53;1.42;;;19.10;81.50;;;;;;5012309;28;20029;-79
2022/09/06 12:35:19;;;;;;;5.95;1.70;;;19.10;79.70;;;;;;5032310;28;20040;-82
2022/09/06 12:37:49;;;;;;;5.47;1.60;;;19.20;80.30;;;;;;5025809;28;20517;-78
2022/09/06 12:40:19;;;;;;;5.10;1.63;;;19.20;80.00;;;;;;5035256;28;20280;-78
2022/09/06 12:42:47;;;;;;;6.10;1.50;;;19.30;80.00;;;;;;5018270;28;20305;-79
2022/09/06 12:45:14;;;;;;;6.05;1.83;;;19.30;78.60;;;;;;5033684;28;20079;-79
2022/09/06 12:47:40;;;;;;;5.22;1.75;;;19.40;78.90;;;;;;5016766;28;20037;-79
2022/09/06 12:50:17;;;;;;;6.95;1.90;;;19.50;80.00;;;;;;5026840;28;20392;-78
2022/09/06 12:52:55;;;;;;;4.18;1.70;;;19.50;79.30;;;;;;5031469;28;20037;-79
2022/09/06 12:55:37;;;;;;;6.80;1.70;;;19.60;79.50;;;;;;5032490;28;20055;-80
2022/09/06 12:58:09;;;;;;;4.32;1.90;;;19.60;78.50;;;;;;5033553;28;20033;-79
2022/09/06 13:00:46;;;;;;;8.05;2.22;;;19.50;78.50;;;;;;5029700;28;20099;-79
2022/09/06 13:03:37;;;;;;;3.13;1.70;;;19.50;78.50;;;;;;5031984;28;20039;-77
2022/09/06 13:06:05;;;;;;;5.83;1.67;;;19.50;78.80;;;;;;5049396;28;20385;-78
2022/09/06 13:09:02;;;;;;;7.40;1.95;;;19.40;78.20;;;;;;5015971;28;20283;-78